Douglas, North Dakota
Current Conditions -  °F | °C
As of 9:54 AM on Thursday 30 Oct 2014 (Local Time) from KMOT Reporting Station
Overcast Overcast  
Wind Chill: 24°   Ceiling: 1200
Heat Index: 33°   Visibility: 10mi
Dew Point: 29°   Wind: 12mph
Humidity: 85%   Direction: 330°NNW
Pressure: 30.34"   Gusts: NA
Location:  47.86°N, 101.5°W
Report Text: KMOT 301454Z 33010KT 10SM BKN012 OVC017 01/M02 A3034 RMK AO2 SLP294 T00061017 53032
Loading
Personal Weather Stations






























Interactive Weather Map
Tropical Storm Tracking
New forecast layout! Learn more

10-Day Weather Forecast

Advertisements
Track Severe Weather on mobile